Time;durP1;ratioP1;P1;durP2;ratioP2;P2;SDS_P1;SDS_P2;PMS_P1;PMS_P2;Temp;Humidity;BMP_temperature;BMP_pressure;BME280_temperature;BME280_humidity;BME280_pressure;Samples;Min_cycle;Max_cycle;Signal;HPM_P1;HPM_P2
2023/05/03 00:00:12;;;;;;;4.87;2.20;;;6.20;99.90;;;;;;5058260;28;20575;-63
2023/05/03 00:02:39;;;;;;;3.47;1.93;;;6.20;99.90;;;;;;5035978;28;20211;-63
2023/05/03 00:05:08;;;;;;;3.00;2.07;;;6.20;99.90;;;;;;5061696;28;20204;-62
2023/05/03 00:07:35;;;;;;;4.73;1.97;;;6.30;99.90;;;;;;5052195;28;20715;-62
2023/05/03 00:10:02;;;;;;;5.03;2.10;;;6.30;99.90;;;;;;5063526;28;20208;-63
2023/05/03 00:12:30;;;;;;;5.17;2.17;;;6.30;99.90;;;;;;5031006;28;20220;-62
2023/05/03 00:14:57;;;;;;;4.10;2.13;;;6.20;99.90;;;;;;5064757;28;20200;-62
2023/05/03 00:17:24;;;;;;;3.77;1.93;;;6.30;99.90;;;;;;5058795;28;20208;-62
2023/05/03 00:19:52;;;;;;;2.53;1.80;;;6.30;99.90;;;;;;5026442;28;20225;-62
2023/05/03 00:22:19;;;;;;;5.43;2.10;;;6.30;99.90;;;;;;5051170;28;20207;-63
2023/05/03 00:24:46;;;;;;;3.57;2.00;;;6.40;99.90;;;;;;5054402;28;20201;-63
2023/05/03 00:27:13;;;;;;;4.00;2.10;;;6.40;99.90;;;;;;5021633;28;20208;-62
2023/05/03 00:29:41;;;;;;;2.70;1.90;;;6.40;99.90;;;;;;5062010;28;20201;-62
2023/05/03 00:32:09;;;;;;;4.47;2.10;;;6.40;99.90;;;;;;5062190;28;20232;-63
2023/05/03 00:34:36;;;;;;;2.37;1.90;;;6.40;99.90;;;;;;5041850;28;20224;-62
2023/05/03 00:37:03;;;;;;;3.23;1.87;;;6.40;99.90;;;;;;5058083;28;20208;-63
2023/05/03 00:39:30;;;;;;;7.53;2.00;;;6.40;99.90;;;;;;5044612;28;20192;-62
2023/05/03 00:41:57;;;;;;;7.93;2.50;;;6.50;99.90;;;;;;5052783;28;20211;-62
2023/05/03 00:44:24;;;;;;;3.80;2.00;;;6.50;99.90;;;;;;5029707;28;20247;-62
2023/05/03 00:46:53;;;;;;;4.30;1.80;;;6.50;99.90;;;;;;5058179;28;20663;-62
2023/05/03 00:49:20;;;;;;;2.37;1.80;;;6.50;99.90;;;;;;5041687;28;20600;-62
2023/05/03 00:51:47;;;;;;;4.37;1.90;;;6.60;99.90;;;;;;5061809;28;20196;-62
2023/05/03 00:54:14;;;;;;;3.33;1.70;;;6.60;99.90;;;;;;5047927;28;20617;-62
2023/05/03 00:56:41;;;;;;;4.93;2.50;;;6.60;99.90;;;;;;5053248;28;20386;-62
2023/05/03 00:59:08;;;;;;;5.30;2.30;;;6.50;99.90;;;;;;5005173;28;20437;-62
2023/05/03 01:01:35;;;;;;;7.10;2.30;;;6.50;99.90;;;;;;5056700;28;20472;-62
2023/05/03 01:04:06;;;;;;;2.40;1.90;;;6.50;99.90;;;;;;5038528;28;20565;-62
2023/05/03 01:06:40;;;;;;;3.73;1.93;;;6.60;99.90;;;;;;5038425;28;20669;-62
2023/05/03 01:09:16;;;;;;;6.97;2.30;;;6.60;99.90;;;;;;5046413;28;20207;-63
2023/05/03 01:11:53;;;;;;;3.40;1.97;;;6.60;99.90;;;;;;5052470;28;20293;-62
2023/05/03 01:14:28;;;;;;;5.90;2.43;;;6.60;99.90;;;;;;5024817;28;20209;-62
2023/05/03 01:17:00;;;;;;;6.70;2.23;;;6.50;99.90;;;;;;5060648;28;20606;-62
2023/05/03 01:19:36;;;;;;;3.73;2.10;;;6.60;99.90;;;;;;5046807;28;20355;-62
2023/05/03 01:22:12;;;;;;;5.07;2.07;;;6.60;99.90;;;;;;5035486;28;20199;-62
2023/05/03 01:24:41;;;;;;;3.77;2.20;;;6.50;99.90;;;;;;5048367;28;20204;-62
2023/05/03 01:27:10;;;;;;;3.77;2.27;;;6.50;99.90;;;;;;5042021;28;20193;-62
2023/05/03 01:29:37;;;;;;;4.17;2.17;;;6.60;99.90;;;;;;5030319;28;20923;-62
2023/05/03 01:32:09;;;;;;;4.73;2.00;;;6.60;99.90;;;;;;5049270;28;20674;-62
2023/05/03 01:34:42;;;;;;;4.47;2.10;;;6.60;99.90;;;;;;5046422;28;20200;-62
2023/05/03 01:37:11;;;;;;;6.87;2.40;;;6.60;99.90;;;;;;5036766;28;20335;-62
2023/05/03 01:39:44;;;;;;;4.53;2.40;;;6.60;99.90;;;;;;5046993;28;20788;-62
2023/05/03 01:42:14;;;;;;;6.17;2.37;;;6.60;99.90;;;;;;5052807;28;20206;-62
2023/05/03 01:44:42;;;;;;;3.20;2.30;;;6.60;99.90;;;;;;5014108;28;20212;-62
2023/05/03 01:47:09;;;;;;;3.97;1.73;;;6.50;99.90;;;;;;5050243;28;20196;-62
2023/05/03 01:49:36;;;;;;;8.60;2.63;;;6.60;99.90;;;;;;5040750;28;20286;-62
2023/05/03 01:52:03;;;;;;;5.33;1.60;;;6.50;99.90;;;;;;5033122;28;20204;-62
2023/05/03 01:54:30;;;;;;;2.10;1.90;;;6.50;99.90;;;;;;5056404;28;20662;-62
2023/05/03 01:56:56;;;;;;;3.43;1.80;;;6.50;99.90;;;;;;5044694;28;20712;-62
2023/05/03 01:59:25;;;;;;;5.07;2.10;;;6.60;99.90;;;;;;5051636;28;20193;-62
2023/05/03 02:01:51;;;;;;;2.20;2.00;;;6.60;99.90;;;;;;5025864;28;20208;-62
2023/05/03 02:04:18;;;;;;;5.17;2.03;;;6.50;99.90;;;;;;5054726;28;20211;-62
2023/05/03 02:06:45;;;;;;;2.33;1.80;;;6.60;99.90;;;;;;5043538;28;20228;-62
2023/05/03 02:09:12;;;;;;;4.60;2.17;;;6.60;99.90;;;;;;5036618;28;20223;-62
2023/05/03 02:11:39;;;;;;;5.83;2.57;;;6.60;99.90;;;;;;5048137;28;20395;-62
2023/05/03 02:14:06;;;;;;;6.87;2.53;;;6.60;99.90;;;;;;5036917;28;20224;-62
2023/05/03 02:16:35;;;;;;;7.33;2.70;;;6.60;99.90;;;;;;5024351;28;20219;-62
2023/05/03 02:19:01;;;;;;;2.47;2.10;;;6.60;99.90;;;;;;5041037;28;20208;-62
2023/05/03 02:21:28;;;;;;;4.77;2.23;;;6.60;99.90;;;;;;5042646;28;20426;-63
2023/05/03 02:23:55;;;;;;;2.87;2.00;;;6.60;99.90;;;;;;5039232;28;20215;-62
2023/05/03 02:26:22;;;;;;;3.67;2.07;;;6.60;99.90;;;;;;5045119;28;20201;-62
2023/05/03 02:28:48;;;;;;;3.40;2.10;;;6.70;99.90;;;;;;5049905;28;20233;-62
2023/05/03 02:31:15;;;;;;;4.80;2.20;;;6.60;99.90;;;;;;5020945;28;20239;-62
2023/05/03 02:33:44;;;;;;;4.20;2.27;;;6.60;99.90;;;;;;5042304;28;20733;-62
2023/05/03 02:36:10;;;;;;;4.03;2.10;;;6.60;99.90;;;;;;5041343;28;20197;-62
2023/05/03 02:38:37;;;;;;;3.60;2.40;;;6.70;99.90;;;;;;5054807;28;20219;-62
2023/05/03 02:41:04;;;;;;;5.27;2.27;;;6.60;99.90;;;;;;5029149;28;20207;-62
2023/05/03 02:43:31;;;;;;;6.30;2.40;;;6.60;99.90;;;;;;5053015;28;20836;-62
2023/05/03 02:45:57;;;;;;;6.50;2.33;;;6.60;99.90;;;;;;5021526;28;20752;-62
2023/05/03 02:48:24;;;;;;;3.00;1.57;;;6.60;99.90;;;;;;5057642;28;20291;-62
2023/05/03 02:50:53;;;;;;;2.50;2.23;;;6.70;99.90;;;;;;5053500;28;20733;-63
2023/05/03 02:53:20;;;;;;;3.30;2.07;;;6.70;99.90;;;;;;5045834;28;20440;-62
2023/05/03 02:55:47;;;;;;;6.30;2.73;;;6.70;99.90;;;;;;5041184;28;20242;-62
2023/05/03 02:58:14;;;;;;;6.40;2.20;;;6.70;99.90;;;;;;5048435;28;20420;-62
2023/05/03 03:00:41;;;;;;;5.10;2.00;;;6.70;99.90;;;;;;5061297;28;20200;-62
2023/05/03 03:03:07;;;;;;;8.67;2.77;;;6.70;99.90;;;;;;5027005;28;20205;-62
2023/05/03 03:05:34;;;;;;;4.47;2.07;;;6.70;99.90;;;;;;5062618;28;20764;-62
2023/05/03 03:08:02;;;;;;;12.03;2.20;;;6.70;99.90;;;;;;5047529;28;20239;-62
2023/05/03 03:10:29;;;;;;;3.60;2.10;;;6.70;99.90;;;;;;5060234;28;20208;-62
2023/05/03 03:12:56;;;;;;;6.00;2.23;;;6.70;99.90;;;;;;5035909;28;20233;-62
2023/05/03 03:15:23;;;;;;;3.97;1.93;;;6.60;99.90;;;;;;5060313;28;20413;-62
2023/05/03 03:17:50;;;;;;;6.23;2.03;;;6.60;99.90;;;;;;5026645;28;20197;-62
2023/05/03 03:20:17;;;;;;;4.87;2.03;;;6.60;99.90;;;;;;5051333;28;20191;-62
2023/05/03 03:22:44;;;;;;;3.37;1.87;;;6.60;99.90;;;;;;5045966;28;20199;-62
2023/05/03 03:25:12;;;;;;;6.90;2.10;;;6.70;99.90;;;;;;5049720;28;20200;-62
2023/05/03 03:27:39;;;;;;;5.23;2.13;;;6.60;99.90;;;;;;5034985;28;20204;-62
2023/05/03 03:30:08;;;;;;;2.43;2.00;;;6.60;99.90;;;;;;5050204;28;20265;-62
2023/05/03 03:32:35;;;;;;;4.50;2.20;;;6.60;99.90;;;;;;5051596;28;20207;-63
2023/05/03 03:35:02;;;;;;;5.17;2.10;;;6.60;99.90;;;;;;5021860;28;20204;-62
2023/05/03 03:37:28;;;;;;;5.43;2.20;;;6.60;99.90;;;;;;5057640;28;20769;-61
2023/05/03 03:39:56;;;;;;;6.33;2.13;;;6.50;99.90;;;;;;5054404;28;20215;-61
2023/05/03 03:42:24;;;;;;;3.80;1.80;;;6.60;99.90;;;;;;5033642;28;20456;-61
2023/05/03 03:44:51;;;;;;;4.13;2.13;;;6.60;99.90;;;;;;5051572;28;20666;-61
2023/05/03 03:47:18;;;;;;;4.60;1.70;;;6.60;99.90;;;;;;5039509;28;20223;-61
2023/05/03 03:49:44;;;;;;;6.97;2.20;;;6.60;99.90;;;;;;5014455;28;20220;-61
2023/05/03 03:52:11;;;;;;;8.23;1.90;;;6.60;99.90;;;;;;5045989;28;20196;-62
2023/05/03 03:54:38;;;;;;;5.33;2.00;;;6.60;99.90;;;;;;5036369;28;20883;-61
2023/05/03 03:57:05;;;;;;;2.60;1.60;;;6.60;99.90;;;;;;5026032;28;20224;-61
2023/05/03 03:59:33;;;;;;;10.87;1.90;;;6.60;99.90;;;;;;5021278;28;20211;-61
2023/05/03 04:02:00;;;;;;;3.13;2.17;;;6.60;99.90;;;;;;5046528;28;20333;-62
2023/05/03 04:04:27;;;;;;;6.87;1.80;;;6.60;99.90;;;;;;5023677;28;20207;-61
2023/05/03 04:06:53;;;;;;;4.97;1.90;;;6.60;99.90;;;;;;5047374;28;20326;-61
2023/05/03 04:09:20;;;;;;;4.37;1.80;;;6.60;99.90;;;;;;5047461;28;20226;-61
2023/05/03 04:11:48;;;;;;;3.67;1.80;;;6.60;99.90;;;;;;5037538;28;20356;-61
2023/05/03 04:14:14;;;;;;;2.77;1.67;;;6.70;99.90;;;;;;5035352;28;20519;-61
2023/05/03 04:16:42;;;;;;;2.97;1.90;;;6.70;99.90;;;;;;5039735;28;20428;-62
2023/05/03 04:19:09;;;;;;;5.07;1.83;;;6.60;99.90;;;;;;5046968;28;20231;-61
2023/05/03 04:21:36;;;;;;;8.60;2.10;;;6.70;99.90;;;;;;5014139;28;20232;-61
2023/05/03 04:24:04;;;;;;;4.60;1.93;;;6.70;99.90;;;;;;5036214;28;20200;-61
2023/05/03 04:26:31;;;;;;;3.57;1.60;;;6.80;99.90;;;;;;5045213;28;20223;-61
2023/05/03 04:28:58;;;;;;;8.33;2.00;;;6.80;99.90;;;;;;5029906;28;20568;-61
2023/05/03 04:31:25;;;;;;;3.40;2.00;;;6.90;99.90;;;;;;5025248;28;20224;-62
2023/05/03 04:33:53;;;;;;;1.97;1.73;;;6.80;99.90;;;;;;5047953;28;20610;-61
2023/05/03 04:36:24;;;;;;;2.27;1.70;;;6.80;99.90;;;;;;5008423;28;20232;-63
2023/05/03 04:38:51;;;;;;;5.03;1.80;;;6.90;99.90;;;;;;5052389;28;20224;-61
2023/05/03 04:41:18;;;;;;;4.07;1.80;;;6.90;99.90;;;;;;5030629;28;20212;-61
2023/05/03 04:43:45;;;;;;;7.60;2.10;;;6.90;99.90;;;;;;5036447;28;20216;-61
2023/05/03 04:46:11;;;;;;;7.67;2.43;;;6.90;99.90;;;;;;5002427;28;20644;-61
2023/05/03 04:48:38;;;;;;;2.23;2.03;;;6.90;99.90;;;;;;5036528;28;20220;-61
2023/05/03 04:51:06;;;;;;;10.40;2.13;;;7.00;99.90;;;;;;5001842;28;20247;-62
2023/05/03 04:53:33;;;;;;;2.67;2.27;;;7.00;99.90;;;;;;5040315;28;20308;-61
2023/05/03 04:56:00;;;;;;;5.90;2.57;;;7.00;99.90;;;;;;5039163;28;20238;-61
2023/05/03 04:58:27;;;;;;;4.50;2.20;;;6.90;99.90;;;;;;5045688;28;20227;-61
2023/05/03 05:00:54;;;;;;;5.73;2.00;;;7.00;99.90;;;;;;5028098;28;20219;-61
2023/05/03 05:03:21;;;;;;;7.20;2.33;;;6.90;99.90;;;;;;5034916;28;20220;-62
2023/05/03 05:05:48;;;;;;;4.67;2.33;;;6.90;99.90;;;;;;5040296;28;20197;-61
2023/05/03 05:08:16;;;;;;;7.23;2.93;;;7.00;99.90;;;;;;5027791;28;21016;-61
2023/05/03 05:10:43;;;;;;;2.87;2.00;;;7.00;99.90;;;;;;5044933;28;20694;-61
2023/05/03 05:13:10;;;;;;;5.17;2.70;;;7.00;99.90;;;;;;5036721;28;20228;-62
2023/05/03 05:15:37;;;;;;;7.97;2.97;;;7.10;99.90;;;;;;5033212;28;20220;-61
2023/05/03 05:18:04;;;;;;;8.33;2.27;;;7.10;99.90;;;;;;5044590;28;20230;-61
2023/05/03 05:20:31;;;;;;;6.43;2.30;;;7.20;99.90;;;;;;5061631;28;20199;-62
2023/05/03 05:22:57;;;;;;;3.57;2.30;;;7.20;99.90;;;;;;5025120;28;20795;-61
2023/05/03 05:25:26;;;;;;;5.23;2.20;;;7.20;99.90;;;;;;5062713;28;20209;-62
2023/05/03 05:27:52;;;;;;;7.43;2.10;;;7.30;99.90;;;;;;5047206;28;20242;-61
2023/05/03 05:30:19;;;;;;;4.97;2.80;;;7.40;99.90;;;;;;5064759;28;20197;-65
2023/05/03 05:32:46;;;;;;;6.23;2.20;;;7.30;99.90;;;;;;5033618;28;20231;-62
2023/05/03 05:35:16;;;;;;;8.57;2.77;;;7.30;99.90;;;;;;5051583;28;20233;-61
2023/05/03 06:11:22;;;;;;;4.90;2.57;;;7.50;99.90;;;;;;6146647;22;1316615;-63
2023/05/03 06:13:49;;;;;;;4.03;2.43;;;7.70;99.90;;;;;;6222355;22;21136;-64
2023/05/03 06:16:16;;;;;;;8.87;2.70;;;7.80;99.90;;;;;;6210515;23;20176;-63
2023/05/03 06:18:44;;;;;;;3.13;2.33;;;7.80;99.90;;;;;;6215445;22;20172;-64
2023/05/03 06:21:10;;;;;;;6.10;2.80;;;7.90;99.90;;;;;;6204600;23;20172;-63
2023/05/03 06:23:38;;;;;;;5.20;2.40;;;7.90;99.90;;;;;;6214114;22;20948;-64
2023/05/03 06:28:51;;;;;;;4.37;2.00;;;8.00;99.90;;;;;;6209028;22;21042;-64
2023/05/03 06:31:18;;;;;;;5.10;2.70;;;8.00;99.90;;;;;;6218318;22;20193;-64
2023/05/03 06:33:44;;;;;;;3.80;2.30;;;8.10;99.90;;;;;;6195986;22;20800;-64
2023/05/03 06:36:11;;;;;;;5.20;2.30;;;8.10;99.90;;;;;;6214568;22;20199;-64
2023/05/03 06:38:38;;;;;;;7.93;2.53;;;8.10;99.90;;;;;;6213032;23;20263;-62
2023/05/03 06:41:05;;;;;;;4.50;2.20;;;8.20;99.90;;;;;;6219918;23;20172;-64
2023/05/03 06:43:32;;;;;;;2.10;1.80;;;8.20;99.90;;;;;;6200353;23;20188;-64
2023/05/03 06:46:00;;;;;;;6.47;2.27;;;8.20;99.90;;;;;;6212962;22;20192;-64
2023/05/03 06:48:27;;;;;;;4.13;1.60;;;8.30;99.90;;;;;;6216424;23;20236;-64
2023/05/03 06:50:54;;;;;;;2.07;1.50;;;8.30;99.90;;;;;;6222947;23;20211;-64
2023/05/03 06:53:21;;;;;;;4.60;1.33;;;8.30;99.90;;;;;;6222561;22;20196;-62
2023/05/03 06:55:48;;;;;;;3.55;1.48;;;8.40;99.90;;;;;;6211298;22;20729;-64
2023/05/03 06:58:15;;;;;;;3.23;2.90;;;8.40;99.90;;;;;;6213333;23;20649;-64
2023/05/03 07:00:42;;;;;;;2.37;1.37;;;8.40;99.90;;;;;;6217224;22;20541;-61
2023/05/03 07:03:10;;;;;;;2.33;1.43;;;8.50;99.90;;;;;;6210382;23;20180;-62
2023/05/03 07:05:37;;;;;;;3.90;2.23;;;8.60;99.90;;;;;;6225072;22;20761;-62
2023/05/03 07:08:04;;;;;;;3.10;1.00;;;8.70;99.90;;;;;;6225164;22;20193;-64
2023/05/03 07:10:31;;;;;;;3.27;1.33;;;8.60;99.90;;;;;;6203790;22;20212;-64
2023/05/03 07:12:57;;;;;;;3.63;1.00;;;8.60;99.90;;;;;;6223011;22;20192;-64
2023/05/03 07:15:24;;;;;;;3.87;1.30;;;8.50;99.90;;;;;;6195858;22;20188;-64
2023/05/03 07:17:51;;;;;;;1.73;1.00;;;8.50;99.90;;;;;;6195872;22;20228;-64
2023/05/03 07:20:19;;;;;;;1.70;1.20;;;8.60;99.90;;;;;;6210518;22;20287;-62
2023/05/03 07:22:47;;;;;;;3.43;1.23;;;8.60;99.90;;;;;;6211399;22;20220;-62
2023/05/03 07:25:16;;;;;;;4.83;1.47;;;8.70;99.90;;;;;;6204445;22;20199;-62
2023/05/03 07:27:43;;;;;;;1.97;1.10;;;8.60;99.90;;;;;;6208414;22;20173;-63
2023/05/03 07:30:10;;;;;;;5.70;1.17;;;8.60;99.90;;;;;;6205345;22;20202;-64
2023/05/03 07:32:37;;;;;;;2.40;1.40;;;8.70;99.90;;;;;;6207172;22;20311;-62
2023/05/03 07:35:04;;;;;;;2.20;1.23;;;8.70;99.90;;;;;;6202523;23;20172;-62
2023/05/03 07:37:32;;;;;;;2.77;1.20;;;8.70;99.90;;;;;;6211468;23;20268;-62
2023/05/03 07:39:59;;;;;;;3.27;1.43;;;8.70;99.90;;;;;;6212420;22;20690;-61
2023/05/03 07:42:26;;;;;;;2.17;1.40;;;8.80;99.90;;;;;;6197635;22;20199;-64
2023/05/03 07:44:54;;;;;;;2.43;1.23;;;8.90;99.90;;;;;;6192407;22;20196;-64
2023/05/03 07:47:21;;;;;;;2.13;1.00;;;8.90;99.90;;;;;;6217711;22;20280;-63
2023/05/03 07:49:49;;;;;;;9.27;2.83;;;8.90;99.90;;;;;;6201427;22;20193;-61
2023/05/03 07:52:16;;;;;;;1.47;1.10;;;8.90;99.90;;;;;;6223314;22;20200;-62
2023/05/03 07:54:45;;;;;;;4.60;1.23;;;9.00;99.90;;;;;;6206279;23;20177;-62
2023/05/03 07:57:12;;;;;;;5.80;1.67;;;9.00;99.90;;;;;;6206703;22;20683;-62
2023/05/03 07:59:39;;;;;;;6.80;1.50;;;9.00;99.90;;;;;;6193113;23;20200;-62
2023/05/03 08:02:06;;;;;;;1.47;1.10;;;9.10;99.90;;;;;;6226207;23;20177;-62
2023/05/03 08:04:33;;;;;;;1.57;1.13;;;9.10;99.90;;;;;;6212776;23;20179;-63
2023/05/03 08:07:01;;;;;;;4.53;1.20;;;9.10;99.90;;;;;;6212945;22;20196;-64
2023/05/03 08:09:28;;;;;;;2.70;1.30;;;9.20;99.90;;;;;;6216134;23;20226;-62
2023/05/03 08:11:56;;;;;;;2.77;1.53;;;9.10;99.90;;;;;;6213070;22;20823;-63
2023/05/03 08:14:23;;;;;;;2.67;1.33;;;9.20;99.90;;;;;;6209244;22;20193;-63
2023/05/03 08:16:50;;;;;;;3.00;1.23;;;9.20;99.90;;;;;;6206033;23;20191;-63
2023/05/03 08:19:17;;;;;;;3.23;1.00;;;9.20;99.90;;;;;;6210667;22;20762;-62
2023/05/03 08:21:45;;;;;;;2.73;1.10;;;9.30;99.90;;;;;;6205854;22;20193;-63
2023/05/03 08:24:12;;;;;;;2.07;1.40;;;9.30;99.90;;;;;;6208054;22;20193;-62
2023/05/03 08:26:40;;;;;;;2.10;1.20;;;9.20;99.90;;;;;;6215674;22;20511;-62
2023/05/03 08:29:08;;;;;;;2.87;1.50;;;9.20;99.90;;;;;;6211049;22;20192;-62
2023/05/03 08:31:35;;;;;;;1.73;1.10;;;9.30;99.90;;;;;;6205490;22;20242;-62
2023/05/03 08:34:02;;;;;;;4.70;1.45;;;9.30;99.90;;;;;;6211265;22;20686;-62
2023/05/03 08:36:30;;;;;;;3.38;1.58;;;9.30;99.90;;;;;;6213831;22;20193;-62
2023/05/03 08:38:57;;;;;;;2.00;1.20;;;9.30;99.90;;;;;;6205538;22;20199;-62
2023/05/03 08:41:28;;;;;;;5.23;1.30;;;9.30;99.90;;;;;;6217854;22;20204;-62
2023/05/03 08:43:57;;;;;;;2.47;1.23;;;9.40;99.90;;;;;;6217071;23;20215;-62
2023/05/03 08:46:25;;;;;;;1.83;1.10;;;9.40;99.90;;;;;;6202308;23;20263;-62
2023/05/03 08:48:53;;;;;;;2.83;1.38;;;9.40;99.90;;;;;;6214826;23;20173;-62
2023/05/03 08:51:21;;;;;;;5.30;1.55;;;9.40;99.90;;;;;;6211203;22;20785;-62
2023/05/03 08:53:48;;;;;;;1.33;1.00;;;9.40;99.90;;;;;;6218236;23;20173;-62
2023/05/03 08:56:23;;;;;;;5.43;1.45;;;9.40;99.90;;;;;;6205984;22;20566;-62
2023/05/03 08:58:50;;;;;;;2.53;1.50;;;9.50;99.90;;;;;;6221968;22;20197;-62
2023/05/03 09:01:19;;;;;;;9.13;1.57;;;9.40;99.90;;;;;;6217216;22;20230;-62
2023/05/03 09:03:51;;;;;;;4.50;1.57;;;9.50;99.90;;;;;;6206504;23;20181;-62
2023/05/03 09:06:24;;;;;;;3.23;1.43;;;9.40;99.90;;;;;;6222576;22;20197;-63
2023/05/03 09:08:51;;;;;;;2.73;1.10;;;9.50;99.90;;;;;;6212816;23;20176;-62
2023/05/03 09:11:22;;;;;;;4.03;1.25;;;9.50;99.90;;;;;;6212403;22;20207;-62
2023/05/03 09:13:51;;;;;;;5.03;1.10;;;9.60;99.90;;;;;;6223108;22;20192;-62
2023/05/03 09:16:23;;;;;;;2.88;1.50;;;9.70;99.90;;;;;;6215069;22;21066;-62
2023/05/03 09:19:02;;;;;;;2.65;1.23;;;9.80;99.90;;;;;;6197870;23;20181;-62
2023/05/03 09:21:30;;;;;;;7.70;1.63;;;9.90;99.90;;;;;;6220734;22;20599;-63
2023/05/03 09:23:57;;;;;;;3.38;1.30;;;10.10;99.90;;;;;;6211326;22;20177;-62
2023/05/03 09:26:31;;;;;;;5.30;1.45;;;10.20;99.90;;;;;;6211342;23;20169;-63
2023/05/03 09:29:00;;;;;;;7.60;1.83;;;10.40;99.90;;;;;;6224038;22;20176;-62
2023/05/03 09:31:27;;;;;;;6.63;1.50;;;10.50;99.90;;;;;;6214410;23;20172;-62
2023/05/03 09:33:54;;;;;;;1.70;1.30;;;10.40;99.90;;;;;;6198078;22;20188;-62
2023/05/03 09:36:23;;;;;;;1.98;1.30;;;10.40;99.90;;;;;;6220519;22;20556;-62
2023/05/03 09:38:51;;;;;;;4.38;1.52;;;10.40;99.90;;;;;;6210761;22;20710;-62
2023/05/03 09:41:27;;;;;;;2.92;1.55;;;10.40;99.90;;;;;;6218197;23;20227;-63
2023/05/03 09:43:55;;;;;;;3.38;1.60;;;10.30;99.90;;;;;;6225334;23;20169;-62
2023/05/03 09:46:24;;;;;;;3.95;1.83;;;10.10;99.90;;;;;;6215533;22;21001;-62
2023/05/03 09:48:54;;;;;;;2.72;1.38;;;10.20;99.90;;;;;;6204560;22;20622;-62
2023/05/03 09:51:23;;;;;;;1.50;1.40;;;10.10;99.90;;;;;;6211909;23;20180;-62
2023/05/03 09:53:50;;;;;;;4.40;1.60;;;10.10;99.90;;;;;;6223325;22;20772;-62
2023/05/03 09:56:19;;;;;;;4.18;1.55;;;10.10;99.90;;;;;;6209957;22;20177;-63
2023/05/03 09:58:46;;;;;;;4.50;1.88;;;10.20;99.90;;;;;;6216254;23;20173;-61
2023/05/03 10:01:14;;;;;;;2.90;1.50;;;10.10;99.90;;;;;;6221659;23;20206;-62
2023/05/03 10:03:43;;;;;;;2.13;1.58;;;10.20;99.90;;;;;;6200244;23;20189;-62
2023/05/03 10:06:23;;;;;;;2.13;1.65;;;10.20;99.90;;;;;;6224903;23;20176;-62
2023/05/03 10:08:54;;;;;;;4.90;1.70;;;10.20;99.90;;;;;;6220875;23;20175;-62
2023/05/03 10:11:23;;;;;;;5.00;1.65;;;10.20;99.90;;;;;;6210571;22;20267;-62
2023/05/03 10:13:50;;;;;;;3.45;1.80;;;10.20;99.90;;;;;;6213642;23;20184;-62
2023/05/03 10:16:27;;;;;;;3.10;1.80;;;10.20;99.90;;;;;;6222229;22;20180;-62
2023/05/03 10:19:02;;;;;;;3.05;1.92;;;10.20;99.90;;;;;;6215512;22;20607;-62
2023/05/03 10:21:38;;;;;;;2.22;1.73;;;10.10;99.90;;;;;;6204412;23;20200;-62
2023/05/03 10:24:12;;;;;;;3.90;1.83;;;10.10;99.90;;;;;;6223544;23;20172;-62
2023/05/03 10:26:41;;;;;;;3.28;1.85;;;10.20;99.90;;;;;;6211796;23;20446;-63
2023/05/03 10:29:47;;;;;;;2.50;1.48;;;10.20;99.90;;;;;;6214263;23;20180;-62
2023/05/03 10:32:32;;;;;;;4.75;2.03;;;10.20;99.90;;;;;;6215733;22;20207;-63
2023/05/03 10:35:02;;;;;;;6.65;1.75;;;10.40;99.90;;;;;;6217074;23;20202;-62
2023/05/03 10:37:28;;;;;;;4.88;1.90;;;10.50;99.90;;;;;;6204596;23;20756;-63
2023/05/03 10:40:05;;;;;;;4.10;1.90;;;10.60;99.90;;;;;;6223706;22;20184;-63
2023/05/03 10:42:32;;;;;;;2.83;1.63;;;10.80;99.90;;;;;;6209749;23;20199;-62
2023/05/03 10:45:02;;;;;;;1.90;1.70;;;11.00;99.90;;;;;;6215377;23;20180;-62
2023/05/03 10:47:29;;;;;;;4.47;1.75;;;11.00;99.90;;;;;;6223414;22;20679;-63
2023/05/03 10:50:27;;;;;;;3.30;1.75;;;11.00;99.90;;;;;;6218176;23;20176;-62
2023/05/03 10:52:53;;;;;;;1.70;1.52;;;11.10;99.90;;;;;;6217705;22;20199;-63
2023/05/03 10:55:24;;;;;;;4.10;1.88;;;11.30;99.90;;;;;;6225487;23;20172;-63
2023/05/03 10:57:55;;;;;;;3.08;1.80;;;11.40;99.90;;;;;;6203500;22;20193;-62
2023/05/03 11:00:31;;;;;;;2.78;1.90;;;11.50;99.90;;;;;;6196711;22;20761;-62
2023/05/03 11:03:26;;;;;;;6.38;2.22;;;11.40;99.90;;;;;;6218693;23;20179;-62
2023/05/03 11:05:53;;;;;;;2.10;1.60;;;11.10;99.90;;;;;;6204790;22;20256;-63
2023/05/03 11:08:21;;;;;;;2.67;1.45;;;11.10;99.90;;;;;;6205790;23;20175;-63
2023/05/03 11:10:56;;;;;;;5.60;1.90;;;11.00;99.90;;;;;;6220711;23;20215;-63
2023/05/03 11:13:23;;;;;;;4.65;1.63;;;11.00;99.90;;;;;;6199484;22;20628;-63
2023/05/03 11:15:50;;;;;;;2.13;1.60;;;10.90;99.90;;;;;;6208845;22;20231;-63
2023/05/03 11:18:17;;;;;;;8.55;2.00;;;10.90;99.90;;;;;;6211355;22;20200;-63
2023/05/03 11:20:44;;;;;;;2.05;1.65;;;10.90;99.90;;;;;;6209820;22;20227;-63
2023/05/03 11:23:12;;;;;;;2.47;1.65;;;10.90;99.90;;;;;;6196055;22;20200;-64
2023/05/03 11:25:39;;;;;;;5.40;1.55;;;10.90;99.90;;;;;;6220415;23;20173;-63
2023/05/03 11:28:07;;;;;;;2.10;1.45;;;10.90;99.90;;;;;;6207008;22;20239;-63
2023/05/03 11:30:36;;;;;;;2.40;1.55;;;10.80;99.90;;;;;;6221394;22;20636;-63
2023/05/03 11:33:03;;;;;;;2.17;1.40;;;10.90;99.90;;;;;;6208353;22;21213;-63
2023/05/03 11:35:30;;;;;;;4.28;1.60;;;10.80;99.90;;;;;;6199145;22;20193;-63
2023/05/03 11:37:57;;;;;;;3.80;1.63;;;11.00;99.90;;;;;;6192614;22;20271;-63
2023/05/03 11:40:24;;;;;;;5.22;2.03;;;11.10;99.90;;;;;;6220323;22;20272;-63
2023/05/03 11:42:53;;;;;;;2.90;1.60;;;11.10;99.90;;;;;;6218651;22;20275;-63
2023/05/03 11:45:22;;;;;;;3.28;1.70;;;11.00;99.90;;;;;;6206579;22;20201;-63
2023/05/03 11:47:49;;;;;;;3.20;1.50;;;11.00;99.90;;;;;;6209562;22;20189;-63
2023/05/03 11:50:17;;;;;;;4.38;2.50;;;11.10;99.90;;;;;;6212648;22;20774;-63
2023/05/03 11:52:44;;;;;;;5.60;1.98;;;11.10;99.90;;;;;;6201155;22;20196;-63
2023/05/03 11:55:12;;;;;;;4.88;2.17;;;11.00;99.90;;;;;;6200176;22;20204;-63
2023/05/03 11:57:38;;;;;;;6.57;1.90;;;11.10;99.90;;;;;;6222044;23;20488;-63
2023/05/03 12:00:17;;;;;;;2.40;1.60;;;11.10;99.90;;;;;;6211498;22;20197;-63
2023/05/03 12:02:48;;;;;;;3.55;1.80;;;11.10;99.90;;;;;;6213817;23;20177;-63
2023/05/03 12:05:16;;;;;;;3.03;1.88;;;11.30;99.90;;;;;;6218050;22;20173;-63
2023/05/03 12:07:43;;;;;;;3.65;1.88;;;11.20;99.90;;;;;;6204632;22;20184;-63
2023/05/03 12:10:15;;;;;;;2.33;2.13;;;11.20;99.90;;;;;;6207319;22;21093;-63
2023/05/03 12:12:52;;;;;;;4.95;1.80;;;11.20;99.90;;;;;;6225076;23;20199;-62
2023/05/03 12:15:28;;;;;;;2.70;1.65;;;11.30;99.90;;;;;;6216912;22;20172;-63
2023/05/03 12:17:59;;;;;;;6.57;2.00;;;11.40;99.90;;;;;;6216500;22;20176;-63
2023/05/03 12:20:29;;;;;;;3.53;2.40;;;11.40;99.90;;;;;;6222608;23;20173;-63
2023/05/03 12:22:57;;;;;;;4.13;1.95;;;11.60;99.90;;;;;;6206667;23;20200;-63
2023/05/03 12:25:24;;;;;;;7.07;2.17;;;11.50;99.90;;;;;;6205882;23;20176;-63
2023/05/03 12:27:53;;;;;;;3.22;2.00;;;11.50;99.90;;;;;;6224855;23;20276;-63
2023/05/03 12:30:20;;;;;;;3.97;2.10;;;11.50;99.90;;;;;;6222591;23;20635;-63
2023/05/03 12:32:47;;;;;;;4.65;1.90;;;11.50;99.90;;;;;;6215078;23;20188;-63
2023/05/03 12:35:16;;;;;;;3.97;2.40;;;11.30;99.90;;;;;;6223592;23;20169;-63
2023/05/03 12:37:43;;;;;;;2.95;2.38;;;11.00;99.90;;;;;;6201789;22;20193;-63
2023/05/03 12:40:10;;;;;;;4.75;2.33;;;10.90;99.90;;;;;;6210182;22;21059;-63
2023/05/03 12:42:37;;;;;;;4.65;2.05;;;10.70;99.90;;;;;;6184751;22;20298;-63
2023/05/03 12:45:05;;;;;;;3.58;2.22;;;10.70;99.90;;;;;;6221448;22;20192;-63
2023/05/03 12:47:31;;;;;;;5.47;2.70;;;10.80;99.90;;;;;;6206964;22;20169;-63
2023/05/03 12:49:58;;;;;;;4.00;2.10;;;10.90;99.90;;;;;;6221292;22;20180;-63
2023/05/03 12:52:26;;;;;;;2.45;2.20;;;11.10;99.90;;;;;;6218640;22;20513;-63
2023/05/03 12:54:53;;;;;;;4.47;2.25;;;11.00;99.90;;;;;;6208638;22;20199;-62
2023/05/03 12:57:20;;;;;;;4.55;2.00;;;11.00;99.90;;;;;;6202167;22;20220;-63
2023/05/03 12:59:51;;;;;;;3.90;2.13;;;11.20;99.90;;;;;;6207736;23;20169;-62
2023/05/03 13:02:19;;;;;;;2.35;1.98;;;11.10;99.90;;;;;;6192058;22;20213;-63
2023/05/03 13:04:46;;;;;;;6.43;2.08;;;11.10;99.90;;;;;;6219687;23;20177;-63
2023/05/03 13:07:15;;;;;;;7.10;2.58;;;11.10;99.90;;;;;;6212979;22;20226;-63
2023/05/03 13:09:44;;;;;;;5.10;2.58;;;11.20;99.90;;;;;;6210667;23;20259;-63
2023/05/03 13:12:11;;;;;;;4.72;2.35;;;11.20;99.90;;;;;;6222100;22;20315;-63
2023/05/03 13:14:38;;;;;;;3.28;2.30;;;11.00;99.90;;;;;;6189114;23;20172;-63
2023/05/03 13:17:05;;;;;;;4.93;2.53;;;10.90;99.90;;;;;;6221531;22;20224;-63
2023/05/03 13:19:32;;;;;;;6.40;2.53;;;11.00;99.90;;;;;;6207597;23;20275;-63
2023/05/03 13:21:59;;;;;;;3.10;2.67;;;11.00;99.90;;;;;;6212563;23;20223;-62
2023/05/03 13:24:26;;;;;;;8.00;2.58;;;11.20;99.90;;;;;;6216309;23;20497;-63
2023/05/03 13:26:54;;;;;;;3.60;2.50;;;11.10;99.90;;;;;;6214814;22;20647;-64
2023/05/03 13:29:21;;;;;;;2.67;2.40;;;11.30;99.90;;;;;;6192047;23;20181;-63
2023/05/03 13:31:48;;;;;;;3.50;2.60;;;11.30;99.90;;;;;;6218280;23;20234;-63
2023/05/03 13:34:15;;;;;;;5.00;2.40;;;11.30;99.90;;;;;;6211614;23;20173;-63